Navoi Airport


Codes: UTSA/NVI
Name: Navoi Airport
City: Navoi
Country: Uzbekistan
Elevation: 0 ft.

Photos at Navoi Airport


   Photos courtesy of SpottingLog. You can add your own sightings and photos by signing up for a free trial today.



No photos found.

Weather at Navoi Airport


Time (UTC)DescriptionTempratureWindCloud coverageVisibilityPressureHumidity
21-Feb-2024 03:00Overcast Clouds-6°C2 mph, NE100%10000m1027hPa86%
21-Feb-2024 06:00Overcast Clouds-4°C0 mph, SE98%10000m1028hPa69%
21-Feb-2024 09:00Broken Clouds-0°C2 mph, NW84%10000m1028hPa49%
21-Feb-2024 12:00Broken Clouds3°C7 mph, NW57%10000m1028hPa35%
21-Feb-2024 15:00Broken Clouds0°C7 mph, N76%10000m1029hPa50%
21-Feb-2024 18:00Broken Clouds-0°C2 mph, N83%10000m1029hPa54%
21-Feb-2024 21:00Scattered Clouds-1°C0 mph, NW40%10000m1029hPa52%
22-Feb-2024 00:00Few Clouds-1°C0 mph, SE23%10000m1029hPa51%
22-Feb-2024 03:00Clear Sky-0°C2 mph, S4%10000m1029hPa48%
22-Feb-2024 06:00Clear Sky3°C7 mph, S5%10000m1029hPa36%
22-Feb-2024 09:00Clear Sky6°C9 mph, SW10%10000m1028hPa29%
22-Feb-2024 12:00Few Clouds6°C7 mph, SW19%10000m1028hPa27%
22-Feb-2024 15:00Overcast Clouds4°C2 mph, W94%10000m1028hPa40%
22-Feb-2024 18:00Overcast Clouds3°C2 mph, NW97%10000m1028hPa43%
22-Feb-2024 21:00Overcast Clouds1°C2 mph, NW89%10000m1028hPa44%
23-Feb-2024 00:00Broken Clouds1°C2 mph, N83%10000m1027hPa43%
23-Feb-2024 03:00Overcast Clouds2°C2 mph, N96%10000m1028hPa43%
23-Feb-2024 06:00Overcast Clouds5°C2 mph, NW98%10000m1029hPa37%
23-Feb-2024 09:00Overcast Clouds6°C4 mph, NW100%10000m1027hPa46%
23-Feb-2024 12:00Overcast Clouds7°C7 mph, NW99%10000m1027hPa45%
23-Feb-2024 15:00Overcast Clouds4°C9 mph, N100%10000m1028hPa53%
23-Feb-2024 18:00Overcast Clouds3°C9 mph, NE100%10000m1028hPa58%
23-Feb-2024 21:00Overcast Clouds3°C9 mph, NE100%10000m1028hPa61%
24-Feb-2024 00:00Overcast Clouds2°C9 mph, NE100%10000m1027hPa67%
24-Feb-2024 03:00Overcast Clouds1°C9 mph, NE97%10000m1029hPa68%
24-Feb-2024 06:00Broken Clouds5°C9 mph, NE68%10000m1029hPa53%
24-Feb-2024 09:00Few Clouds7°C11 mph, N18%10000m1028hPa45%
24-Feb-2024 12:00Scattered Clouds6°C20 mph, N36%10000m1029hPa44%
24-Feb-2024 15:00Few Clouds3°C18 mph, NE14%10000m1029hPa52%
24-Feb-2024 18:00Broken Clouds2°C13 mph, NE56%10000m1029hPa59%
24-Feb-2024 21:00Overcast Clouds1°C9 mph, NE99%10000m1029hPa61%
25-Feb-2024 00:00Overcast Clouds1°C11 mph, NE98%10000m1029hPa63%
25-Feb-2024 03:00Overcast Clouds1°C11 mph, NE100%10000m1029hPa63%
25-Feb-2024 06:00Overcast Clouds4°C11 mph, NE100%10000m1029hPa53%
25-Feb-2024 09:00Overcast Clouds8°C9 mph, NE99%10000m1027hPa47%
25-Feb-2024 12:00Overcast Clouds7°C11 mph, NE99%10000m1026hPa49%
25-Feb-2024 15:00Overcast Clouds4°C13 mph, NE96%10000m1028hPa72%
25-Feb-2024 18:00Overcast Clouds4°C11 mph, NE97%10000m1028hPa73%
25-Feb-2024 21:00Overcast Clouds3°C9 mph, NE89%10000m1028hPa75%
26-Feb-2024 00:00Broken Clouds1°C9 mph, NE66%10000m1027hPa83%